Campton, New Hampshire
Current Conditions -  °F | °C
As of 3:55 PM on Thursday 18 Dec 2014 (Local Time) from K1P1 Reporting Station
Overcast Overcast  
Wind Chill: 26°   Ceiling: 2500
Heat Index: 34°   Visibility: 10mi
Dew Point: 31°   Wind: 12mph
Humidity: 87%   Direction: 300°WNW
Pressure: 29.77"   Gusts: 18mph
Location:  43.86°N, 71.65°W
Report Text: K1P1 182055Z AUTO 30010G16KT 10SM OVC025 01/M01 A2977 RMK AO2 T00131007
Loading
Personal Weather Stations






























Interactive Weather Map New forecast layout! Learn more

10-Day Weather Forecast

Advertisements
Track Severe Weather on mobile